createdAt,value
2023-02-13T00:00:50.764Z,101375.10
2023-02-13T00:01:54.721Z,101379.50
2023-02-13T00:02:58.589Z,101384.76
2023-02-13T00:04:02.679Z,101374.25
2023-02-13T00:05:06.849Z,101383.05
2023-02-13T00:06:11.177Z,101382.16
2023-02-13T00:07:15.191Z,101376.88
2023-02-13T00:08:19.096Z,101381.30
2023-02-13T00:09:23.131Z,101378.66
2023-02-13T00:10:27.349Z,101383.05
2023-02-13T00:11:31.241Z,101381.27
2023-02-13T00:12:35.554Z,101376.04
2023-02-13T00:13:39.527Z,101377.78
2023-02-13T00:14:43.487Z,101377.78
2023-02-13T00:15:48.935Z,101370.78
2023-02-13T00:16:52.885Z,101370.78
2023-02-13T00:17:56.793Z,101368.20
2023-02-13T00:19:00.760Z,101366.46
2023-02-13T00:20:05.641Z,101368.23
2023-02-13T00:21:12.616Z,101358.63
2023-02-13T00:22:16.485Z,101366.52
2023-02-13T00:23:20.308Z,101362.98
2023-02-13T00:24:24.386Z,101358.63
2023-02-13T00:25:28.384Z,101355.17
2023-02-13T00:26:32.413Z,101355.17
2023-02-13T00:27:36.524Z,101349.91
2023-02-13T00:28:40.736Z,101350.77
2023-02-13T00:29:45.346Z,101346.43
2023-02-13T00:30:49.613Z,101346.43
2023-02-13T00:31:53.701Z,101348.20
2023-02-13T00:32:57.789Z,101346.51
2023-02-13T00:34:01.701Z,101355.25
2023-02-13T00:35:05.865Z,101353.50
2023-02-13T00:36:19.445Z,101349.99
2023-02-13T00:37:23.493Z,101350.07
2023-02-13T00:38:28.936Z,101357.04
2023-02-13T00:39:32.879Z,101353.55
2023-02-13T00:40:36.936Z,101353.55
2023-02-13T00:41:40.856Z,101353.58
2023-02-13T00:42:44.760Z,101351.86
2023-02-13T00:43:49.570Z,101350.09
2023-02-13T00:44:54.257Z,101350.09
2023-02-13T00:45:59.148Z,101351.00
2023-02-13T00:47:05.045Z,101349.26
2023-02-13T00:48:08.601Z,101345.77
2023-02-13T00:49:12.555Z,101344.00
2023-02-13T00:50:17.009Z,101344.94
2023-02-13T00:51:20.998Z,101338.83
2023-02-13T00:52:24.983Z,101333.62
2023-02-13T00:53:29.467Z,101339.68
2023-02-13T00:54:33.448Z,101328.31
2023-02-13T00:55:37.287Z,101330.09
2023-02-13T00:56:41.370Z,101324.89
2023-02-13T00:57:45.209Z,101331.86
2023-02-13T00:58:49.121Z,101328.37
2023-02-13T00:59:52.955Z,101330.14
2023-02-13T01:00:57.912Z,101324.00
2023-02-13T01:02:02.034Z,101324.00
2023-02-13T01:03:06.121Z,101331.94
2023-02-13T01:04:10.026Z,101324.98
2023-02-13T01:05:14.614Z,101318.88
2023-02-13T01:06:18.729Z,101322.36
2023-02-13T01:07:22.694Z,101322.36
2023-02-13T01:08:26.680Z,101320.61
2023-02-13T01:09:30.654Z,101323.23
2023-02-13T01:10:34.965Z,101323.23
2023-02-13T01:11:39.242Z,101320.61
2023-02-13T01:12:43.190Z,101314.50
2023-02-13T01:13:47.158Z,101316.25
2023-02-13T01:14:51.124Z,101310.99
2023-02-13T01:15:55.211Z,101310.10
2023-02-13T01:16:59.566Z,101310.10
2023-02-13T01:18:04.526Z,101318.89
2023-02-13T01:19:08.579Z,101318.06
2023-02-13T01:20:14.117Z,101318.03
2023-02-13T01:21:21.427Z,101318.06
2023-02-13T01:22:25.413Z,101320.69
2023-02-13T01:23:34.127Z,101315.43
2023-02-13T01:24:38.070Z,101319.83
2023-02-13T01:25:43.630Z,101318.97
2023-02-13T01:26:47.665Z,101310.25
2023-02-13T01:27:51.685Z,101317.28
2023-02-13T01:28:56.317Z,101314.66
2023-02-13T01:30:00.415Z,101313.80
2023-02-13T01:31:04.638Z,101313.80
2023-02-13T01:32:08.773Z,101313.80
2023-02-13T01:33:12.825Z,101312.94
2023-02-13T01:34:16.916Z,101309.40
2023-02-13T01:35:21.297Z,101310.25
2023-02-13T01:36:26.474Z,101305.08
2023-02-13T01:37:30.528Z,101305.94
2023-02-13T01:38:34.623Z,101306.80
2023-02-13T01:39:38.669Z,101305.06
2023-02-13T01:40:51.538Z,101305.06
2023-02-13T01:41:55.506Z,101306.80
2023-02-13T01:42:59.567Z,101306.80
2023-02-13T01:44:03.864Z,101302.45
2023-02-13T01:45:19.488Z,101301.62
2023-02-13T01:46:35.165Z,101303.37
2023-02-13T01:47:45.339Z,101311.27
2023-02-13T01:48:51.802Z,101299.91
2023-02-13T01:50:01.120Z,101308.66
2023-02-13T01:51:11.244Z,101304.32
2023-02-13T01:52:16.566Z,101300.78
2023-02-13T01:53:29.551Z,101302.61
2023-02-13T01:54:35.196Z,101301.69
2023-02-13T01:55:47.964Z,101305.23
2023-02-13T01:56:55.020Z,101305.23
2023-02-13T01:58:02.118Z,101300.84
2023-02-13T01:59:11.941Z,101300.84
2023-02-13T02:00:17.031Z,101292.98
2023-02-13T02:01:23.333Z,101298.23
2023-02-13T02:02:28.490Z,101297.36
2023-02-13T02:03:44.483Z,101291.24
2023-02-13T02:04:50.707Z,101286.80
2023-02-13T02:05:57.392Z,101290.33
2023-02-13T02:07:04.438Z,101285.94
2023-02-13T02:08:11.675Z,101285.94
2023-02-13T02:09:21.120Z,101286.77
2023-02-13T02:10:25.729Z,101291.11
2023-02-13T02:11:35.444Z,101289.39
2023-02-13T02:12:45.110Z,101289.39
2023-02-13T02:13:49.782Z,101286.80
2023-02-13T02:14:56.733Z,101283.29
2023-02-13T02:16:02.220Z,101282.40
2023-02-13T02:17:06.329Z,101287.66
2023-02-13T02:18:19.269Z,101282.40
2023-02-13T02:19:51.980Z,101284.09
2023-02-13T02:21:01.775Z,101287.61
2023-02-13T02:22:17.600Z,101292.86
2023-02-13T02:23:41.049Z,101291.11
2023-02-13T02:25:15.690Z,101288.47
2023-02-13T02:26:37.444Z,101284.06
2023-02-13T02:27:47.023Z,101282.35
2023-02-13T02:29:19.400Z,101282.35
2023-02-13T02:30:32.167Z,101289.32
2023-02-13T02:31:47.986Z,101284.92
2023-02-13T02:33:14.067Z,101287.55
2023-02-13T02:34:37.277Z,101286.67
2023-02-13T02:36:00.750Z,101285.76
2023-02-13T02:37:19.417Z,101286.61
2023-02-13T02:38:34.704Z,101287.53
2023-02-13T02:40:00.900Z,101287.47
2023-02-13T02:41:11.308Z,101289.24
2023-02-13T02:42:21.397Z,101289.24
2023-02-13T02:43:46.500Z,101282.30
2023-02-13T02:45:05.567Z,101276.16
2023-02-13T02:46:24.496Z,101283.98
2023-02-13T02:47:36.998Z,101283.98
2023-02-13T02:48:55.777Z,101282.28
2023-02-13T02:50:05.400Z,101277.02
2023-02-13T02:51:24.243Z,101277.02
2023-02-13T02:52:31.113Z,101276.16
2023-02-13T02:53:56.043Z,101277.87
2023-02-13T02:55:11.731Z,101283.21
2023-02-13T02:56:36.878Z,101283.21
2023-02-13T02:57:52.551Z,101283.29
2023-02-13T02:58:59.428Z,101283.36
2023-02-13T03:00:03.616Z,101280.77
2023-02-13T03:01:10.584Z,101280.86
2023-02-13T03:02:16.364Z,101281.69
2023-02-13T03:03:23.676Z,101278.16
2023-02-13T03:04:30.692Z,101279.05
2023-02-13T03:05:37.708Z,101277.22
2023-02-13T03:06:57.059Z,101277.22
2023-02-13T03:08:02.454Z,101278.97
2023-02-13T03:09:09.241Z,101271.97
2023-02-13T03:10:16.347Z,101270.23
2023-02-13T03:11:20.340Z,101279.05
2023-02-13T03:12:26.857Z,101270.33
2023-02-13T03:13:42.465Z,101270.33
2023-02-13T03:14:46.435Z,101263.33
2023-02-13T03:15:52.939Z,101268.66
2023-02-13T03:16:59.612Z,101269.58
2023-02-13T03:18:03.692Z,101266.04
2023-02-13T03:19:16.300Z,101263.41
2023-02-13T03:20:38.281Z,101263.41
2023-02-13T03:21:53.885Z,101259.05
2023-02-13T03:23:09.329Z,101259.05
2023-02-13T03:24:24.460Z,101256.45
2023-02-13T03:25:37.416Z,101258.21
2023-02-13T03:26:56.554Z,101254.73
2023-02-13T03:28:15.053Z,101261.77
2023-02-13T03:29:36.647Z,101261.77
2023-02-13T03:30:58.965Z,101251.27
2023-02-13T03:32:08.877Z,101251.30
2023-02-13T03:33:21.834Z,101251.30
2023-02-13T03:34:28.864Z,101254.00
2023-02-13T03:35:59.926Z,101244.42
2023-02-13T03:37:06.971Z,101244.42
2023-02-13T03:38:16.623Z,101247.13
2023-02-13T03:39:29.548Z,101236.65
2023-02-13T03:40:42.077Z,101245.44
2023-02-13T03:41:58.062Z,101243.67
2023-02-13T03:43:10.942Z,101246.30
2023-02-13T03:44:20.832Z,101242.79
2023-02-13T03:45:27.818Z,101241.95
2023-02-13T03:46:34.963Z,101241.97
2023-02-13T03:47:41.166Z,101242.86
2023-02-13T03:48:47.886Z,101245.51
2023-02-13T03:49:54.124Z,101235.87
2023-02-13T03:51:01.038Z,101235.87
2023-02-13T03:53:24.806Z,101232.13
2023-02-13T03:54:50.154Z,101223.73
2023-02-13T03:55:55.675Z,101220.19
2023-02-13T03:56:59.807Z,101221.05
2023-02-13T03:58:06.769Z,101219.34
2023-02-13T03:59:13.736Z,101222.84
2023-02-13T04:00:20.048Z,101219.34
2023-02-13T04:01:27.298Z,101212.34
2023-02-13T04:02:34.336Z,101215.80
2023-02-13T04:03:47.423Z,101211.41
2023-02-13T04:05:06.413Z,101212.34
2023-02-13T04:06:22.379Z,101212.34
2023-02-13T04:07:26.858Z,101211.48
2023-02-13T04:08:31.344Z,101208.02
2023-02-13T04:09:38.301Z,101197.53
2023-02-13T04:10:45.260Z,101199.22
2023-02-13T04:11:58.253Z,101205.36
2023-02-13T04:13:20.460Z,101205.36
2023-02-13T04:14:42.136Z,101197.41
2023-02-13T04:16:10.294Z,101197.41
2023-02-13T04:17:19.988Z,101193.09
2023-02-13T04:18:30.115Z,101199.27
2023-02-13T04:19:34.616Z,101194.02
2023-02-13T04:20:39.610Z,101208.84
2023-02-13T04:21:43.851Z,101208.84
2023-02-13T04:22:49.412Z,101197.42
2023-02-13T04:23:53.462Z,101194.80
2023-02-13T04:24:57.444Z,101190.41
2023-02-13T04:26:04.056Z,101193.02
2023-02-13T04:27:08.427Z,101194.78
2023-02-13T04:28:12.531Z,101194.72
2023-02-13T04:29:16.493Z,101195.64
2023-02-13T04:30:20.900Z,101200.86
2023-02-13T04:31:26.503Z,101196.47
2023-02-13T04:32:30.648Z,101192.94
2023-02-13T04:33:34.519Z,101195.53
2023-02-13T04:34:38.997Z,101197.25
2023-02-13T04:35:43.032Z,101193.71
2023-02-13T04:36:47.175Z,101188.46
2023-02-13T04:37:51.172Z,101186.67
2023-02-13T04:38:55.281Z,101188.36
2023-02-13T04:39:59.306Z,101196.21
2023-02-13T04:41:03.393Z,101193.51
2023-02-13T04:42:07.481Z,101189.94
2023-02-13T04:43:11.519Z,101186.38
2023-02-13T04:44:15.542Z,101189.80
2023-02-13T04:45:19.556Z,101186.30
2023-02-13T04:46:23.857Z,101195.02
2023-02-13T04:47:27.894Z,101191.45
2023-02-13T04:48:33.464Z,101191.45
2023-02-13T04:49:37.345Z,101200.10
2023-02-13T04:50:41.496Z,101194.74
2023-02-13T04:51:45.455Z,101191.17
2023-02-13T04:52:52.536Z,101198.14
2023-02-13T04:53:56.564Z,101198.14
2023-02-13T04:55:00.542Z,101192.80
2023-02-13T04:56:04.745Z,101158.30
2023-02-13T04:57:10.202Z,101200.58
2023-02-13T04:58:14.216Z,101200.58
2023-02-13T04:59:18.257Z,101199.58
2023-02-13T05:00:23.826Z,101199.55
2023-02-13T05:01:27.999Z,101197.76
2023-02-13T05:02:32.479Z,101199.47
2023-02-13T05:03:36.307Z,101199.47
2023-02-13T05:04:40.267Z,101200.24
2023-02-13T05:05:44.162Z,101206.24
2023-02-13T05:06:48.162Z,101200.98
2023-02-13T05:07:52.013Z,101200.98
2023-02-13T05:08:55.913Z,101209.67
2023-02-13T05:09:59.967Z,101197.33
2023-02-13T05:11:03.936Z,101199.08
2023-02-13T05:12:08.329Z,101190.28
2023-02-13T05:13:12.439Z,101193.73
2023-02-13T05:14:16.351Z,101202.45
2023-02-13T05:15:20.381Z,101195.36
2023-02-13T05:16:24.485Z,101197.96
2023-02-13T05:17:28.484Z,101198.81
2023-02-13T05:18:32.407Z,101197.02
2023-02-13T05:19:36.320Z,101197.02
2023-02-13T05:20:40.254Z,101194.33
2023-02-13T05:21:44.222Z,101195.12
2023-02-13T05:22:55.209Z,101199.37
2023-02-13T05:23:59.066Z,101203.69
2023-02-13T05:25:03.076Z,101205.38
2023-02-13T05:26:07.078Z,101200.12
2023-02-13T05:27:10.910Z,101193.97
2023-02-13T05:28:15.316Z,101197.40
2023-02-13T05:29:19.478Z,101199.08
2023-02-13T05:30:24.275Z,101196.36
2023-02-13T05:31:29.498Z,101196.36
2023-02-13T05:32:33.471Z,101194.53
2023-02-13T05:33:38.829Z,101194.44
2023-02-13T05:34:42.675Z,101197.01
2023-02-13T05:35:48.155Z,101203.09
2023-02-13T05:36:52.254Z,101199.58
2023-02-13T05:37:56.176Z,101199.58
2023-02-13T05:39:00.270Z,101197.73
2023-02-13T05:40:05.006Z,101197.73
2023-02-13T05:41:09.012Z,101203.73
2023-02-13T05:42:12.997Z,101199.33
2023-02-13T05:43:16.978Z,101193.91
2023-02-13T05:44:20.923Z,101192.17
2023-02-13T05:45:24.808Z,101192.08
2023-02-13T05:46:28.803Z,101201.71
2023-02-13T05:47:32.944Z,101201.71
2023-02-13T05:48:38.547Z,101189.29
2023-02-13T05:49:45.206Z,101186.66
2023-02-13T05:50:49.117Z,101176.89
2023-02-13T05:51:53.132Z,101183.87
2023-02-13T05:52:57.090Z,101186.47
2023-02-13T05:54:01.477Z,101174.23
2023-02-13T05:55:05.726Z,101179.39
2023-02-13T05:56:10.072Z,101180.28
2023-02-13T05:57:14.060Z,101181.11
2023-02-13T05:58:18.574Z,101181.11
2023-02-13T05:59:32.456Z,101173.94
2023-02-13T06:00:31.556Z,101181.70
2023-02-13T06:01:35.532Z,101172.03
2023-02-13T06:02:39.517Z,101178.16
2023-02-13T06:03:43.647Z,101182.46
2023-02-13T06:04:47.643Z,101186.02
2023-02-13T06:05:52.209Z,101181.50
2023-02-13T06:06:56.290Z,101171.83
2023-02-13T06:08:00.166Z,101180.55
2023-02-13T06:09:04.186Z,101175.19
2023-02-13T06:10:09.338Z,101175.19
2023-02-13T06:11:13.275Z,101178.64
2023-02-13T06:12:17.405Z,101177.69
2023-02-13T06:13:21.516Z,101175.84
2023-02-13T06:14:25.524Z,101177.48
2023-02-13T06:15:29.652Z,101169.55
2023-02-13T06:16:33.795Z,101173.80
2023-02-13T06:17:37.877Z,101172.87
2023-02-13T06:18:42.041Z,101166.65
2023-02-13T06:19:45.920Z,101170.95
2023-02-13T06:20:50.413Z,101169.14
2023-02-13T06:21:54.472Z,101169.14
2023-02-13T06:22:58.591Z,101165.52
2023-02-13T06:24:02.625Z,101167.23
2023-02-13T06:25:06.952Z,101167.23
2023-02-13T06:26:13.017Z,101161.86
2023-02-13T06:27:16.626Z,101160.04
2023-02-13T06:28:20.882Z,101161.75
2023-02-13T06:29:24.897Z,101161.64
2023-02-13T06:30:29.098Z,101157.20
2023-02-13T06:31:33.112Z,101157.20
2023-02-13T06:32:37.158Z,101164.03
2023-02-13T06:33:41.127Z,101164.00
2023-02-13T06:34:45.044Z,101160.40
2023-02-13T06:35:49.191Z,101153.24
2023-02-13T06:36:53.206Z,101154.06
2023-02-13T06:37:57.245Z,101150.39
2023-02-13T06:39:01.295Z,101149.43
2023-02-13T06:40:06.733Z,101155.48
2023-02-13T06:41:10.819Z,101149.25
2023-02-13T06:42:14.838Z,101145.64
2023-02-13T06:43:19.168Z,101145.42
2023-02-13T06:44:23.225Z,101143.60
2023-02-13T06:45:27.366Z,101146.98
2023-02-13T06:46:31.565Z,101143.38
2023-02-13T06:47:35.661Z,101139.70
2023-02-13T06:48:41.813Z,101145.79
2023-02-13T06:49:45.939Z,101134.23
2023-02-13T06:50:49.953Z,101142.03
2023-02-13T06:51:54.021Z,101143.74
2023-02-13T06:52:58.053Z,101135.72
2023-02-13T06:54:01.988Z,101136.42
2023-02-13T06:55:06.435Z,101136.38
2023-02-13T06:56:12.777Z,101136.38
2023-02-13T06:57:17.225Z,101127.27
2023-02-13T06:58:22.730Z,101130.59
2023-02-13T06:59:26.822Z,101127.80
2023-02-13T07:00:30.901Z,101128.45
2023-02-13T07:01:34.897Z,101131.73
2023-02-13T07:02:40.376Z,101128.05
2023-02-13T07:03:44.451Z,101128.05
2023-02-13T07:04:48.415Z,101122.32
2023-02-13T07:05:52.513Z,101130.08
2023-02-13T07:06:57.291Z,101127.23
2023-02-13T07:09:35.674Z,101120.94
2023-02-13T07:10:41.279Z,101117.06
2023-02-13T07:11:45.312Z,101119.53
2023-02-13T07:13:03.679Z,101114.13
2023-02-13T07:13:54.922Z,101113.15
2023-02-13T07:15:01.615Z,101104.30
2023-02-13T07:16:06.488Z,101110.20
2023-02-13T07:17:19.552Z,101107.44
2023-02-13T07:18:23.507Z,101104.80
2023-02-13T07:19:27.512Z,101099.39
2023-02-13T07:20:31.730Z,101093.17
2023-02-13T07:21:35.828Z,101103.52
2023-02-13T07:22:39.758Z,101099.00
2023-02-13T07:23:43.669Z,101104.28
2023-02-13T07:24:47.591Z,101105.89
2023-02-13T07:25:51.615Z,101102.19
2023-02-13T07:26:55.559Z,101095.06
2023-02-13T07:28:04.635Z,101098.46
2023-02-13T07:29:11.894Z,101031.25
2023-02-13T07:30:14.734Z,101092.96
2023-02-13T07:31:18.769Z,101088.34
2023-02-13T07:32:23.115Z,101090.00
2023-02-13T07:33:27.046Z,101090.09
2023-02-13T07:34:30.978Z,101089.15
2023-02-13T07:35:34.979Z,101082.74
2023-02-13T07:36:40.160Z,101080.05
2023-02-13T07:37:44.236Z,101086.91
2023-02-13T07:38:49.289Z,101082.28
2023-02-13T07:39:53.333Z,101085.59
2023-02-13T07:41:04.540Z,101081.88
2023-02-13T07:42:08.665Z,101075.68
2023-02-13T07:43:13.534Z,101081.69
2023-02-13T07:44:17.533Z,101077.20
2023-02-13T07:45:22.928Z,101082.40
2023-02-13T07:46:26.971Z,101082.40
2023-02-13T07:47:30.890Z,101074.27
2023-02-13T07:48:34.913Z,101084.00
2023-02-13T07:49:39.029Z,101081.30
2023-02-13T07:50:42.978Z,101085.52
2023-02-13T07:51:46.963Z,101085.52
2023-02-13T07:52:56.106Z,101095.89
2023-02-13T07:54:01.664Z,101082.67
2023-02-13T07:55:06.763Z,101079.89
2023-02-13T07:56:11.636Z,101086.89
2023-02-13T07:57:16.754Z,101084.19
2023-02-13T07:58:20.737Z,101084.19
2023-02-13T07:59:24.730Z,101076.77
2023-02-13T08:00:29.968Z,101080.13
2023-02-13T08:01:34.032Z,101070.34
2023-02-13T08:02:37.918Z,101070.34
2023-02-13T08:03:42.110Z,101066.75
2023-02-13T08:04:46.297Z,101063.96
2023-02-13T08:05:50.628Z,101065.75
2023-02-13T08:06:54.624Z,101065.75
2023-02-13T08:07:58.666Z,101063.77
2023-02-13T08:09:02.598Z,101049.63
2023-02-13T08:10:12.095Z,101058.27
2023-02-13T08:11:31.112Z,101058.27
2023-02-13T08:12:36.947Z,101059.98
2023-02-13T08:13:42.025Z,101051.04
2023-02-13T08:14:45.872Z,101045.69
2023-02-13T08:15:49.870Z,101044.75
2023-02-13T08:16:55.300Z,101047.34
2023-02-13T08:17:59.592Z,101040.16
2023-02-13T08:19:05.089Z,101048.84
2023-02-13T08:20:10.169Z,101040.90
2023-02-13T08:21:14.290Z,101035.52
2023-02-13T08:22:19.923Z,101036.25
2023-02-13T08:23:24.039Z,101039.59
2023-02-13T08:24:28.097Z,101033.30
2023-02-13T08:25:32.270Z,101030.60
2023-02-13T08:26:38.269Z,101033.30
2023-02-13T08:27:42.525Z,101031.60
2023-02-13T08:28:46.629Z,101035.45
2023-02-13T08:29:51.337Z,101035.45
2023-02-13T08:30:56.118Z,101021.02
2023-02-13T08:32:00.235Z,101020.86
2023-02-13T08:33:04.358Z,101020.71
2023-02-13T08:34:08.961Z,101018.70
2023-02-13T08:35:13.127Z,101023.06
2023-02-13T08:36:18.124Z,101026.19
2023-02-13T08:37:22.221Z,101020.69
2023-02-13T08:38:28.366Z,101029.97
2023-02-13T08:39:32.544Z,101024.52
2023-02-13T08:40:38.198Z,101030.38
2023-02-13T08:41:42.260Z,101032.88
2023-02-13T08:42:46.255Z,101032.78
2023-02-13T08:43:51.072Z,101033.41
2023-02-13T08:44:55.100Z,101039.50
2023-02-13T08:46:06.437Z,101033.27
2023-02-13T08:47:14.896Z,101035.91
2023-02-13T08:48:19.079Z,101035.84
2023-02-13T08:49:23.179Z,101034.84
2023-02-13T08:50:28.012Z,101031.34
2023-02-13T08:51:36.281Z,101024.94
2023-02-13T08:52:39.453Z,101024.94
2023-02-13T08:53:50.094Z,101025.03
2023-02-13T08:54:54.303Z,101027.36
2023-02-13T08:56:01.969Z,101029.00
2023-02-13T08:57:07.344Z,101022.69
2023-02-13T08:58:15.087Z,101015.53
2023-02-13T08:59:22.345Z,101017.92
2023-02-13T09:01:15.943Z,101011.45
2023-02-13T09:02:08.063Z,101018.33
2023-02-13T09:02:46.129Z,101018.33
2023-02-13T09:04:12.571Z,101013.55
2023-02-13T09:06:53.112Z,101016.92
2023-02-13T09:08:06.297Z,101016.92
2023-02-13T09:09:24.665Z,101006.61
2023-02-13T09:12:09.210Z,101013.15
2023-02-13T09:30:52.375Z,100990.73
2023-02-13T11:07:45.483Z,100919.14
2023-02-13T11:08:28.446Z,100923.31
2023-02-13T11:09:38.246Z,100911.79
2023-02-13T11:10:45.463Z,100911.79
2023-02-13T11:12:02.781Z,100918.37
2023-02-13T11:13:01.115Z,100918.37
2023-02-13T11:14:14.430Z,100917.86
2023-02-13T11:15:27.040Z,100919.41
2023-02-13T11:16:43.187Z,100917.36
2023-02-13T11:17:48.958Z,100914.61
2023-02-13T11:18:54.656Z,100914.61
2023-02-13T11:20:07.121Z,100919.66
2023-02-13T11:22:44.212Z,100914.96
2023-02-13T11:22:56.902Z,100911.53
2023-02-13T11:23:59.213Z,100913.16
2023-02-13T11:25:23.979Z,100917.44
2023-02-13T11:26:36.368Z,100910.50
2023-02-13T11:27:40.953Z,100910.50
2023-02-13T11:28:54.749Z,100921.05
2023-02-13T11:30:07.335Z,100915.73
2023-02-13T11:31:27.367Z,100908.88
2023-02-13T11:32:38.414Z,100916.66
2023-02-13T11:33:42.740Z,100907.07
2023-02-13T11:34:54.502Z,100911.35
2023-02-13T11:37:32.853Z,100904.16
2023-02-13T11:38:35.626Z,100904.16
2023-02-13T11:39:43.176Z,100896.88
2023-02-13T11:40:56.690Z,100893.38
2023-02-13T11:42:03.986Z,100890.64
2023-02-13T11:43:09.845Z,100885.16
2023-02-13T11:44:25.910Z,100886.78
2023-02-13T11:45:30.250Z,100883.95
2023-02-13T11:46:52.441Z,100877.61
2023-02-13T11:47:59.621Z,100885.46
2023-02-13T11:49:10.089Z,100885.46
2023-02-13T11:50:33.724Z,100876.58
2023-02-13T11:51:58.293Z,100879.82
2023-02-13T11:53:11.143Z,100887.61
2023-02-13T11:54:39.128Z,100877.16
2023-02-13T11:55:46.334Z,100873.38
2023-02-13T11:57:08.058Z,100869.09
2023-02-13T11:58:02.101Z,100876.88
2023-02-13T11:59:09.564Z,100872.45
2023-02-13T12:00:37.994Z,100870.72
2023-02-13T12:01:42.199Z,100856.41
2023-02-13T12:02:51.187Z,100864.37
2023-02-13T12:04:10.417Z,100864.37
2023-02-13T12:05:18.776Z,100850.44
2023-02-13T12:06:23.161Z,100682.13
2023-02-13T12:07:33.524Z,100854.02
2023-02-13T12:08:41.113Z,100847.67
2023-02-13T12:09:48.208Z,100854.02
2023-02-13T12:10:53.294Z,100846.74
2023-02-13T12:12:11.358Z,100840.40
2023-02-13T12:13:31.966Z,100833.17
2023-02-13T12:14:43.407Z,100839.06
2023-02-13T12:15:51.776Z,100837.19
2023-02-13T12:17:08.701Z,100829.41
2023-02-13T12:18:56.173Z,100829.41
2023-02-13T12:19:48.429Z,100835.48
2023-02-13T12:22:33.859Z,100827.52
2023-02-13T12:24:00.727Z,100827.52
2023-02-13T12:25:28.911Z,100830.65
2023-02-13T12:28:22.805Z,100828.18
2023-02-13T12:29:36.181Z,100821.91
2023-02-13T12:30:58.854Z,100822.98
2023-02-13T12:32:22.391Z,100821.44
2023-02-13T12:33:30.882Z,100819.81
2023-02-13T12:34:59.615Z,100820.66
2023-02-13T12:36:18.889Z,100820.66
2023-02-13T12:37:32.150Z,100682.13
2023-02-13T12:38:55.728Z,100814.03
2023-02-13T12:40:14.707Z,100815.73
2023-02-13T12:41:40.355Z,100818.38
2023-02-13T12:43:15.652Z,100819.41
2023-02-13T12:44:55.850Z,100817.13
2023-02-13T12:46:10.271Z,100811.90
2023-02-13T12:47:35.348Z,100811.90
2023-02-13T12:49:01.759Z,100806.00
2023-02-13T12:50:23.626Z,100802.42
2023-02-13T12:51:41.198Z,100799.84
2023-02-13T12:52:49.546Z,100799.84
2023-02-13T12:54:08.459Z,100792.83
2023-02-13T12:55:21.035Z,100797.30
2023-02-13T12:56:46.187Z,100795.56
2023-02-13T12:58:09.375Z,100795.56
2023-02-13T12:59:23.152Z,100797.30
2023-02-13T13:00:52.910Z,100794.72
2023-02-13T13:02:07.023Z,100794.72
2023-02-13T13:03:48.590Z,100792.91
2023-02-13T13:05:07.490Z,100796.52
2023-02-13T13:06:32.872Z,100797.45
2023-02-13T13:07:54.897Z,100795.75
2023-02-13T13:09:35.468Z,100787.86
2023-02-13T13:11:02.006Z,100796.78
2023-02-13T13:12:30.002Z,100787.02
2023-02-13T13:13:42.444Z,100781.70
2023-02-13T13:15:10.454Z,100788.05
2023-02-13T13:16:34.113Z,100792.69
2023-02-13T13:17:47.190Z,100770.50
2023-02-13T13:18:56.392Z,100778.47
2023-02-13T13:20:16.786Z,100773.16
2023-02-13T13:21:46.548Z,100776.58
2023-02-13T13:22:56.645Z,100776.58
2023-02-13T13:24:24.754Z,100762.20
2023-02-13T13:25:45.390Z,100762.20
2023-02-13T13:26:53.005Z,100758.33
2023-02-13T13:28:00.101Z,100754.64
2023-02-13T13:29:11.649Z,100758.03
2023-02-13T13:30:21.720Z,100758.03
2023-02-13T13:31:30.460Z,100761.27
2023-02-13T13:32:38.359Z,100770.00
2023-02-13T13:33:46.041Z,100765.27
2023-02-13T13:34:52.985Z,100767.92
2023-02-13T13:36:02.863Z,100767.92
2023-02-13T13:37:14.129Z,100764.81
2023-02-13T13:38:21.209Z,100769.09
2023-02-13T13:39:43.063Z,100769.09
2023-02-13T13:40:54.383Z,100771.55
2023-02-13T13:42:17.754Z,100770.59
2023-02-13T13:43:32.053Z,100770.59
2023-02-13T13:44:55.716Z,100768.05
2023-02-13T13:46:31.989Z,100766.33
2023-02-13T13:47:48.069Z,100773.82
2023-02-13T13:49:14.477Z,100774.75
2023-02-13T13:50:24.431Z,100780.25
2023-02-13T13:51:30.088Z,100771.55
2023-02-13T13:52:37.493Z,100770.00
2023-02-13T13:54:07.192Z,100768.30
2023-02-13T13:55:14.277Z,100770.19
2023-02-13T13:56:18.965Z,100764.22
2023-02-13T13:57:26.282Z,100761.64
2023-02-13T13:58:39.386Z,100755.56
2023-02-13T13:59:49.200Z,100759.95
2023-02-13T14:01:33.609Z,100746.86
2023-02-13T14:02:56.933Z,100745.23
2023-02-13T14:04:03.298Z,100744.92
2023-02-13T14:05:33.511Z,100739.61
2023-02-13T14:06:49.858Z,100739.61
2023-02-13T14:07:56.938Z,100742.34
2023-02-13T14:09:03.945Z,100730.88
2023-02-13T14:10:32.443Z,100735.34
2023-02-13T14:11:42.169Z,100733.72
2023-02-13T14:12:52.475Z,100739.98
2023-02-13T14:13:56.776Z,100733.05
2023-02-13T14:15:05.480Z,100740.16
2023-02-13T14:16:13.067Z,100739.39
2023-02-13T14:17:19.898Z,100739.47
2023-02-13T14:18:27.353Z,100740.43
2023-02-13T14:19:38.604Z,100743.27
2023-02-13T14:20:45.566Z,100749.61
2023-02-13T14:21:51.364Z,100744.38
2023-02-13T14:22:55.625Z,100744.38
2023-02-13T14:24:02.651Z,100740.02
2023-02-13T14:25:08.298Z,100740.09
2023-02-13T14:26:21.374Z,100734.05
2023-02-13T14:27:37.288Z,100737.55
2023-02-13T14:28:52.821Z,100737.55
2023-02-13T14:29:57.930Z,100739.51
2023-02-13T14:31:27.463Z,100743.97
2023-02-13T14:32:37.233Z,100745.00
2023-02-13T14:33:41.534Z,100746.73
2023-02-13T14:34:51.159Z,100747.75
2023-02-13T14:36:22.168Z,100747.75
2023-02-13T14:37:32.213Z,100738.92
2023-02-13T14:38:37.575Z,100746.02
2023-02-13T14:39:43.314Z,100738.17
2023-02-13T14:40:52.332Z,100738.17
2023-02-13T14:41:59.543Z,100733.91
2023-02-13T14:43:09.416Z,100739.28
2023-02-13T14:44:35.923Z,100737.58
2023-02-13T14:45:47.072Z,100742.11
2023-02-13T14:46:54.498Z,100732.45
2023-02-13T14:48:02.773Z,100732.45
2023-02-13T14:49:15.668Z,100732.53
2023-02-13T14:50:25.464Z,100733.56
2023-02-13T14:51:32.569Z,100730.14
2023-02-13T14:52:39.777Z,100724.83
2023-02-13T14:53:54.158Z,100733.74
2023-02-13T14:55:04.218Z,100729.39
2023-02-13T14:56:12.851Z,100732.05
2023-02-13T14:57:19.928Z,100738.20
2023-02-13T14:58:29.635Z,100700.42
2023-02-13T14:59:38.299Z,100700.42
2023-02-13T15:00:45.407Z,100733.08
2023-02-13T15:02:01.408Z,100733.08
2023-02-13T15:03:25.610Z,100730.50
2023-02-13T15:04:37.106Z,100730.67
2023-02-13T15:05:45.717Z,100736.94
2023-02-13T15:06:53.340Z,100729.90
2023-02-13T15:08:20.141Z,100727.36
2023-02-13T15:09:39.041Z,100727.61
2023-02-13T15:10:53.823Z,100725.91